Time;durP1;ratioP1;P1;durP2;ratioP2;P2;SDS_P1;SDS_P2;PMS_P1;PMS_P2;Temp;Humidity;BMP_temperature;BMP_pressure;BME280_temperature;BME280_humidity;BME280_pressure;Samples;Min_cycle;Max_cycle;Signal;HPM_P1;HPM_P2
2024/03/22 06:17:45;;;;;;;;;40.00;34.75;;;;;;;;5219416;23;11326;-69
2024/03/22 06:20:11;;;;;;;;;39.75;32.75;;;;;;;;5012409;28;11577;-68
2024/03/22 06:22:36;;;;;;;;;37.75;33.50;;;;;;;;5013558;28;11836;-68
2024/03/22 06:25:02;;;;;;;;;37.00;32.25;;;;;;;;5013630;28;9557;-67
2024/03/22 06:27:27;;;;;;;;;42.75;34.50;;;;;;;;5013605;28;8764;-67
2024/03/22 06:29:52;;;;;;;;;48.50;40.75;;;;;;;;5013486;28;8865;-69
2024/03/22 06:32:18;;;;;;;;;39.00;35.75;;;;;;;;5013042;28;8784;-76
2024/03/22 06:34:43;;;;;;;;;42.00;37.00;;;;;;;;4953093;28;11215;-72
2024/03/22 06:37:08;;;;;;;;;40.00;34.00;;;;;;;;5010033;28;8816;-71
2024/03/22 06:39:33;;;;;;;;;39.25;32.00;;;;;;;;4973298;28;11252;-71
2024/03/22 06:41:59;;;;;;;;;45.50;38.50;;;;;;;;5011564;28;8772;-72
2024/03/22 06:44:24;;;;;;;;;36.00;31.00;;;;;;;;5011643;28;8780;-71
2024/03/22 06:46:49;;;;;;;;;42.25;33.00;;;;;;;;5011973;28;8923;-73
2024/03/22 06:49:15;;;;;;;;;36.00;31.75;;;;;;;;5012247;28;8808;-71
2024/03/22 06:51:40;;;;;;;;;36.75;30.75;;;;;;;;5012176;28;8911;-72
2024/03/22 06:54:05;;;;;;;;;29.00;25.50;;;;;;;;5012474;28;8915;-68
2024/03/22 06:56:31;;;;;;;;;38.00;33.75;;;;;;;;5012508;28;8800;-69
2024/03/22 06:58:56;;;;;;;;;39.75;33.00;;;;;;;;5012953;28;8773;-74
2024/03/22 07:01:21;;;;;;;;;37.00;33.25;;;;;;;;5012914;28;8784;-84
2024/03/22 07:03:47;;;;;;;;;31.00;29.00;;;;;;;;5012796;28;8930;-78
2024/03/22 07:06:13;;;;;;;;;32.75;30.00;;;;;;;;4995093;28;8812;-77
2024/03/22 07:08:38;;;;;;;;;40.25;32.25;;;;;;;;4995143;28;8796;-77
2024/03/22 07:11:07;;;;;;;;;34.50;33.00;;;;;;;;5013091;28;11596;-77
2024/03/22 07:13:32;;;;;;;;;37.75;34.00;;;;;;;;5012983;28;8807;-78
2024/03/22 07:15:57;;;;;;;;;38.25;34.75;;;;;;;;5012716;28;11481;-77
2024/03/22 07:18:22;;;;;;;;;44.25;36.50;;;;;;;;4995118;28;8792;-77
2024/03/22 07:20:48;;;;;;;;;44.50;38.50;;;;;;;;5012447;28;8809;-77
2024/03/22 07:23:14;;;;;;;;;38.50;34.00;;;;;;;;4994821;28;9563;-74
2024/03/22 07:25:39;;;;;;;;;35.25;29.75;;;;;;;;5012364;28;11506;-74
2024/03/22 07:28:04;;;;;;;;;37.25;35.75;;;;;;;;5012364;28;8780;-75
2024/03/22 07:30:30;;;;;;;;;42.50;36.75;;;;;;;;4994920;28;8804;-77
2024/03/22 07:32:55;;;;;;;;;46.75;38.50;;;;;;;;5012251;28;8780;-76
2024/03/22 07:35:20;;;;;;;;;48.00;39.25;;;;;;;;4994654;28;8986;-78
2024/03/22 07:37:45;;;;;;;;;49.25;37.50;;;;;;;;5012387;28;8808;-78
2024/03/22 07:40:11;;;;;;;;;48.25;40.00;;;;;;;;5012410;28;8793;-78
2024/03/22 07:42:36;;;;;;;;;44.00;37.25;;;;;;;;5012407;28;8822;-78
2024/03/22 07:45:01;;;;;;;;;50.00;39.75;;;;;;;;5012280;28;8790;-79
2024/03/22 07:47:27;;;;;;;;;47.50;39.50;;;;;;;;4994306;28;8808;-78
2024/03/22 07:49:52;;;;;;;;;46.00;39.00;;;;;;;;5011104;28;8780;-78
2024/03/22 07:52:17;;;;;;;;;41.00;37.00;;;;;;;;5011817;28;8835;-77
2024/03/22 07:54:42;;;;;;;;;45.50;37.00;;;;;;;;5011887;28;8935;-78
2024/03/22 07:57:08;;;;;;;;;40.50;35.75;;;;;;;;5011915;28;8784;-78
2024/03/22 07:59:33;;;;;;;;;37.75;29.00;;;;;;;;5011768;28;8776;-78
2024/03/22 08:01:59;;;;;;;;;47.75;39.75;;;;;;;;5011534;28;8792;-77
2024/03/22 08:04:24;;;;;;;;;43.00;34.25;;;;;;;;4994168;28;8788;-78
2024/03/22 08:06:52;;;;;;;;;45.25;38.75;;;;;;;;4993837;28;8817;-77
2024/03/22 08:09:18;;;;;;;;;46.25;39.50;;;;;;;;5011630;28;8776;-81
2024/03/22 08:11:43;;;;;;;;;43.50;40.25;;;;;;;;4993840;28;11476;-82
2024/03/22 08:14:09;;;;;;;;;41.25;36.50;;;;;;;;5011591;28;8793;-82
2024/03/22 08:16:34;;;;;;;;;45.50;39.75;;;;;;;;4994173;28;8831;-83
2024/03/22 08:18:59;;;;;;;;;39.75;36.00;;;;;;;;5011858;28;8800;-81
2024/03/22 08:21:24;;;;;;;;;40.75;36.50;;;;;;;;5011877;28;8788;-79
2024/03/22 08:23:50;;;;;;;;;46.25;39.75;;;;;;;;5011605;28;9208;-80
2024/03/22 08:26:15;;;;;;;;;39.50;37.25;;;;;;;;5011653;28;8820;-79
2024/03/22 08:28:41;;;;;;;;;49.50;39.50;;;;;;;;5011385;28;8898;-81
2024/03/22 08:31:06;;;;;;;;;42.75;38.50;;;;;;;;4993601;28;9593;-82
2024/03/22 08:33:31;;;;;;;;;45.75;39.00;;;;;;;;5011573;28;8769;-82
2024/03/22 08:35:57;;;;;;;;;51.25;40.25;;;;;;;;4993746;28;8820;-81
2024/03/22 08:38:23;;;;;;;;;44.25;38.00;;;;;;;;5011682;28;8776;-78
2024/03/22 08:40:50;;;;;;;;;53.25;41.25;;;;;;;;4993680;28;9317;-81
2024/03/22 08:43:15;;;;;;;;;48.00;40.75;;;;;;;;4993438;28;12215;-80
2024/03/22 08:45:40;;;;;;;;;53.25;38.75;;;;;;;;5010890;28;11438;-81
2024/03/22 08:48:06;;;;;;;;;46.25;39.50;;;;;;;;5012023;28;8899;-85
2024/03/22 08:50:31;;;;;;;;;44.75;34.25;;;;;;;;5012045;28;8874;-91
2024/03/22 08:52:56;;;;;;;;;42.00;36.50;;;;;;;;5011390;28;8796;-75
2024/03/22 08:55:21;;;;;;;;;46.25;35.00;;;;;;;;5011009;28;8792;-77
2024/03/22 08:57:47;;;;;;;;;43.50;38.00;;;;;;;;5010880;28;8765;-77
2024/03/22 09:00:12;;;;;;;;;28.00;25.00;;;;;;;;5011036;28;8780;-76
2024/03/22 09:02:38;;;;;;;;;43.25;36.00;;;;;;;;4992966;28;8788;-75
2024/03/22 09:05:04;;;;;;;;;37.00;33.50;;;;;;;;4992985;28;8796;-79
2024/03/22 09:07:29;;;;;;;;;42.50;38.00;;;;;;;;5010819;28;8862;-73
2024/03/22 09:09:54;;;;;;;;;40.75;37.00;;;;;;;;4993148;28;8822;-82
2024/03/22 09:12:19;;;;;;;;;42.25;36.50;;;;;;;;5010852;28;9014;-74
2024/03/22 09:14:45;;;;;;;;;38.75;33.50;;;;;;;;5010915;28;8807;-76
2024/03/22 09:17:10;;;;;;;;;40.67;33.00;;;;;;;;5011029;28;8800;-73
2024/03/22 09:19:35;;;;;;;;;44.33;36.67;;;;;;;;5010653;28;8873;-73
2024/03/22 09:22:01;;;;;;;;;40.33;34.67;;;;;;;;5010506;28;8820;-73
2024/03/22 09:24:26;;;;;;;;;39.33;34.33;;;;;;;;4992978;28;8836;-74
2024/03/22 09:26:51;;;;;;;;;34.33;32.00;;;;;;;;5010409;28;8850;-73
2024/03/22 09:29:17;;;;;;;;;35.67;32.33;;;;;;;;5010834;28;8824;-73
2024/03/22 09:31:43;;;;;;;;;33.50;30.75;;;;;;;;5010445;28;8797;-73
2024/03/22 09:34:08;;;;;;;;;36.33;32.33;;;;;;;;5010559;28;8799;-73
2024/03/22 09:36:35;;;;;;;;;38.67;32.33;;;;;;;;5010485;28;8817;-73
2024/03/22 09:39:01;;;;;;;;;33.00;30.00;;;;;;;;5010703;28;9660;-73
2024/03/22 09:41:26;;;;;;;;;30.33;26.00;;;;;;;;5010537;28;8776;-73
2024/03/22 09:43:51;;;;;;;;;28.67;26.33;;;;;;;;5010629;28;9538;-73
2024/03/22 09:46:18;;;;;;;;;28.67;25.33;;;;;;;;5010319;28;8816;-73
2024/03/22 09:48:45;;;;;;;;;39.75;32.25;;;;;;;;5010401;28;8792;-73
2024/03/22 09:51:10;;;;;;;;;28.75;25.75;;;;;;;;5010252;28;8808;-73
2024/03/22 09:53:35;;;;;;;;;29.67;28.00;;;;;;;;5010193;28;8782;-73
2024/03/22 09:56:02;;;;;;;;;28.33;24.67;;;;;;;;5010126;28;8816;-73
2024/03/22 09:58:27;;;;;;;;;25.75;25.75;;;;;;;;5010409;28;8854;-74
2024/03/22 10:00:53;;;;;;;;;26.33;25.33;;;;;;;;5010161;28;8784;-72
2024/03/22 10:03:18;;;;;;;;;22.67;22.00;;;;;;;;5010327;28;8784;-72
2024/03/22 10:05:43;;;;;;;;;21.67;20.67;;;;;;;;5010233;28;8796;-72
2024/03/22 10:08:09;;;;;;;;;22.00;21.00;;;;;;;;5010144;28;8760;-72
2024/03/22 10:10:34;;;;;;;;;19.00;19.00;;;;;;;;5010260;28;8788;-74
2024/03/22 10:13:04;;;;;;;;;18.67;16.33;;;;;;;;5010978;28;8791;-72
2024/03/22 10:15:30;;;;;;;;;22.00;20.60;;;;;;;;5013496;28;9666;-72
2024/03/22 10:17:59;;;;;;;;;20.50;20.50;;;;;;;;5014096;28;8796;-72
2024/03/22 10:20:24;;;;;;;;;14.60;13.60;;;;;;;;5013623;28;8819;-72
2024/03/22 10:22:57;;;;;;;;;15.75;14.50;;;;;;;;5013608;28;9561;-73
2024/03/22 10:25:23;;;;;;;;;14.00;12.20;;;;;;;;5013642;28;9687;-72
2024/03/22 10:27:48;;;;;;;;;13.50;11.75;;;;;;;;5013346;28;8820;-72
2024/03/22 10:30:16;;;;;;;;;9.75;9.75;;;;;;;;5013527;28;8851;-72
2024/03/22 10:32:41;;;;;;;;;13.80;11.20;;;;;;;;4995822;28;8803;-72
2024/03/22 10:35:08;;;;;;;;;10.00;10.00;;;;;;;;5013331;28;8812;-72
2024/03/22 10:37:36;;;;;;;;;8.60;8.20;;;;;;;;5013249;28;8791;-72
2024/03/22 10:40:09;;;;;;;;;8.60;8.40;;;;;;;;5013284;28;8776;-72
2024/03/22 10:42:35;;;;;;;;;10.80;8.80;;;;;;;;4995766;28;8788;-72
2024/03/22 10:45:00;;;;;;;;;6.50;6.50;;;;;;;;5013141;28;8875;-72
2024/03/22 10:47:29;;;;;;;;;6.00;6.00;;;;;;;;5013066;28;8800;-72
2024/03/22 10:49:58;;;;;;;;;4.25;4.25;;;;;;;;5013021;28;8810;-72
2024/03/22 10:52:24;;;;;;;;;7.00;6.00;;;;;;;;5013003;28;8780;-72
2024/03/22 10:54:50;;;;;;;;;11.33;9.67;;;;;;;;5013100;28;8934;-72
2024/03/22 10:57:16;;;;;;;;;5.00;5.00;;;;;;;;5012803;28;8816;-72
2024/03/22 10:59:42;;;;;;;;;5.00;4.00;;;;;;;;5012935;28;8811;-72
2024/03/22 11:02:10;;;;;;;;;4.00;4.00;;;;;;;;5012732;28;8804;-72
2024/03/22 11:04:35;;;;;;;;;2.25;2.25;;;;;;;;5012803;28;8796;-72
2024/03/22 11:07:02;;;;;;;;;4.33;4.33;;;;;;;;5012752;28;8796;-72
2024/03/22 11:09:27;;;;;;;;;3.75;3.50;;;;;;;;5012851;28;8939;-72
2024/03/22 11:11:53;;;;;;;;;3.00;3.00;;;;;;;;5012624;28;8895;-72
2024/03/22 11:14:20;;;;;;;;;3.50;3.00;;;;;;;;4994992;28;8890;-72
2024/03/22 11:16:45;;;;;;;;;3.00;3.00;;;;;;;;5012547;28;8828;-72
2024/03/22 11:19:10;;;;;;;;;4.67;4.67;;;;;;;;4994833;28;8828;-72
2024/03/22 11:21:36;;;;;;;;;4.00;4.00;;;;;;;;5012467;28;8846;-72
2024/03/22 11:24:01;;;;;;;;;3.00;3.00;;;;;;;;5012406;28;8800;-72
2024/03/22 11:26:26;;;;;;;;;3.33;3.33;;;;;;;;5012604;28;8830;-72
2024/03/22 11:28:52;;;;;;;;;2.67;2.67;;;;;;;;5012684;28;8781;-72
2024/03/22 11:31:17;;;;;;;;;3.33;3.33;;;;;;;;5012113;28;8883;-72
2024/03/22 11:33:43;;;;;;;;;3.00;3.00;;;;;;;;4994726;28;8812;-78
2024/03/22 11:36:09;;;;;;;;;5.25;3.75;;;;;;;;5012011;28;8832;-82
2024/03/22 11:38:35;;;;;;;;;3.67;3.67;;;;;;;;5012054;28;8899;-72
2024/03/22 11:41:02;;;;;;;;;4.33;4.00;;;;;;;;5012101;28;8788;-72
2024/03/22 11:43:28;;;;;;;;;4.00;3.75;;;;;;;;5012084;28;8820;-80
2024/03/22 11:45:54;;;;;;;;;3.00;3.00;;;;;;;;5011543;28;8893;-80
2024/03/22 11:48:20;;;;;;;;;3.67;3.67;;;;;;;;5011454;28;8895;-80
2024/03/22 11:50:46;;;;;;;;;4.00;4.00;;;;;;;;5011476;28;8796;-77
2024/03/22 11:53:11;;;;;;;;;4.33;2.67;;;;;;;;5011248;28;9574;-79
2024/03/22 11:55:36;;;;;;;;;5.33;4.00;;;;;;;;5011438;28;8812;-81
2024/03/22 11:58:01;;;;;;;;;3.33;3.00;;;;;;;;5011631;28;8809;-82
2024/03/22 12:00:27;;;;;;;;;4.00;4.00;;;;;;;;5011890;28;8796;-81
2024/03/22 12:02:53;;;;;;;;;4.67;4.67;;;;;;;;5011910;28;8773;-81
2024/03/22 12:05:18;;;;;;;;;5.00;4.00;;;;;;;;5011731;28;11059;-79
2024/03/22 12:07:46;;;;;;;;;4.67;3.33;;;;;;;;5011851;28;9558;-76
2024/03/22 12:10:12;;;;;;;;;5.00;3.50;;;;;;;;5011766;28;8786;-82
2024/03/22 12:12:37;;;;;;;;;3.67;3.67;;;;;;;;4994009;28;8922;-77
2024/03/22 12:15:03;;;;;;;;;4.00;4.00;;;;;;;;5011601;28;8773;-76
2024/03/22 12:17:28;;;;;;;;;4.00;3.33;;;;;;;;5011881;28;8824;-76
2024/03/22 12:19:53;;;;;;;;;4.33;4.00;;;;;;;;4993990;28;8800;-72
2024/03/22 12:22:19;;;;;;;;;3.00;3.00;;;;;;;;5011519;28;8804;-74
2024/03/22 12:24:44;;;;;;;;;3.00;3.00;;;;;;;;5011504;28;8796;-80
2024/03/22 12:27:10;;;;;;;;;4.00;4.00;;;;;;;;5011395;28;8796;-79
2024/03/22 12:29:35;;;;;;;;;4.00;3.67;;;;;;;;5011720;28;8853;-78
2024/03/22 12:32:02;;;;;;;;;3.33;3.33;;;;;;;;4993799;28;8800;-78
2024/03/22 12:34:29;;;;;;;;;3.75;3.75;;;;;;;;4993721;28;8827;-77
2024/03/22 12:36:54;;;;;;;;;4.00;3.00;;;;;;;;5010801;28;8938;-78
2024/03/22 12:39:19;;;;;;;;;4.67;4.00;;;;;;;;5011262;28;9002;-78
2024/03/22 12:41:45;;;;;;;;;4.00;4.00;;;;;;;;5011315;28;8776;-78
2024/03/22 12:44:10;;;;;;;;;4.00;3.67;;;;;;;;5011222;28;8806;-78
2024/03/22 12:46:35;;;;;;;;;4.00;4.00;;;;;;;;5010976;28;8784;-83
2024/03/22 12:49:01;;;;;;;;;3.00;3.00;;;;;;;;5011110;28;8776;-82
2024/03/22 12:51:26;;;;;;;;;5.00;5.00;;;;;;;;5010939;28;9506;-81
2024/03/22 12:53:52;;;;;;;;;4.00;4.00;;;;;;;;5010919;28;8781;-77
2024/03/22 12:56:17;;;;;;;;;2.33;2.33;;;;;;;;4993214;28;9412;-78
2024/03/22 12:58:42;;;;;;;;;4.33;4.33;;;;;;;;5010970;28;8773;-76
2024/03/22 13:01:08;;;;;;;;;4.00;4.00;;;;;;;;5007374;28;9570;-75
2024/03/22 13:03:33;;;;;;;;;3.67;3.67;;;;;;;;5010737;28;9487;-75
2024/03/22 13:05:59;;;;;;;;;3.00;3.00;;;;;;;;5010632;28;8800;-82
2024/03/22 13:08:24;;;;;;;;;4.00;4.00;;;;;;;;5010544;28;8898;-75
2024/03/22 13:10:49;;;;;;;;;4.67;4.67;;;;;;;;5010738;28;8807;-72
2024/03/22 13:13:16;;;;;;;;;6.67;6.00;;;;;;;;5010708;28;8805;-72
2024/03/22 13:15:42;;;;;;;;;5.00;5.00;;;;;;;;4992443;28;8848;-75
2024/03/22 13:18:07;;;;;;;;;6.00;6.00;;;;;;;;4992630;28;9143;-76
2024/03/22 13:20:33;;;;;;;;;5.00;4.00;;;;;;;;5009983;28;8788;-74
2024/03/22 13:22:58;;;;;;;;;6.33;6.33;;;;;;;;5009938;28;8796;-74
2024/03/22 13:25:23;;;;;;;;;5.00;5.00;;;;;;;;5010086;28;8781;-75
2024/03/22 13:27:48;;;;;;;;;3.33;3.33;;;;;;;;4992405;28;8832;-74
2024/03/22 13:30:14;;;;;;;;;7.67;7.33;;;;;;;;5009893;28;8784;-75
2024/03/22 13:32:40;;;;;;;;;6.00;5.00;;;;;;;;5010020;28;9656;-74
2024/03/22 13:35:05;;;;;;;;;5.00;5.00;;;;;;;;5010002;28;9047;-75
2024/03/22 13:37:31;;;;;;;;;4.00;4.00;;;;;;;;4983501;28;8888;-75
2024/03/22 13:39:56;;;;;;;;;7.00;6.00;;;;;;;;5008453;28;8812;-75
2024/03/22 13:42:22;;;;;;;;;4.00;4.00;;;;;;;;5009880;28;8788;-75
2024/03/22 13:44:47;;;;;;;;;4.67;3.67;;;;;;;;5009720;28;8915;-76
2024/03/22 13:47:12;;;;;;;;;4.00;4.00;;;;;;;;5009778;28;8804;-75
2024/03/22 13:49:41;;;;;;;;;3.00;3.00;;;;;;;;5013230;28;8915;-75
2024/03/22 13:52:09;;;;;;;;;6.67;6.00;;;;;;;;5013366;28;8823;-75
2024/03/22 13:54:35;;;;;;;;;4.33;4.33;;;;;;;;5013568;28;9250;-75
2024/03/22 13:57:01;;;;;;;;;6.00;6.00;;;;;;;;5013300;28;8969;-75
2024/03/22 13:59:27;;;;;;;;;4.00;4.00;;;;;;;;5013248;28;8789;-75
2024/03/22 14:01:52;;;;;;;;;4.67;4.67;;;;;;;;5013284;28;8792;-75
2024/03/22 14:04:19;;;;;;;;;6.67;6.67;;;;;;;;5013787;28;9518;-76
2024/03/22 14:06:44;;;;;;;;;5.00;5.00;;;;;;;;5013653;28;8796;-77
2024/03/22 14:09:10;;;;;;;;;4.33;4.00;;;;;;;;5013787;28;9018;-76
2024/03/22 14:11:36;;;;;;;;;6.67;6.00;;;;;;;;5013592;28;8773;-75
2024/03/22 14:14:01;;;;;;;;;9.00;7.67;;;;;;;;5013016;28;8816;-75
2024/03/22 14:16:29;;;;;;;;;6.00;6.00;;;;;;;;5013255;28;8833;-75
2024/03/22 14:18:55;;;;;;;;;5.00;5.00;;;;;;;;5013465;28;8792;-76
2024/03/22 14:21:20;;;;;;;;;10.00;8.00;;;;;;;;4996137;28;9069;-74
2024/03/22 14:23:49;;;;;;;;;4.33;4.33;;;;;;;;5013513;28;8781;-74
2024/03/22 14:26:15;;;;;;;;;5.67;5.00;;;;;;;;4995890;28;8808;-73
2024/03/22 14:28:40;;;;;;;;;5.00;5.00;;;;;;;;5013303;28;9128;-76
2024/03/22 14:31:08;;;;;;;;;6.00;6.00;;;;;;;;5013367;28;8951;-77
2024/03/22 14:33:33;;;;;;;;;8.00;4.67;;;;;;;;5013424;28;8870;-75
2024/03/22 14:35:58;;;;;;;;;5.00;5.00;;;;;;;;5012965;28;9528;-74
2024/03/22 14:38:24;;;;;;;;;8.33;6.00;;;;;;;;5012863;28;8919;-74
2024/03/22 14:40:49;;;;;;;;;5.67;5.67;;;;;;;;5012872;28;8796;-75
2024/03/22 14:43:14;;;;;;;;;5.33;5.33;;;;;;;;4995247;28;8882;-77
2024/03/22 14:45:39;;;;;;;;;4.33;4.33;;;;;;;;4994865;28;9591;-78
2024/03/22 14:48:06;;;;;;;;;6.00;6.00;;;;;;;;4994873;28;8812;-77
2024/03/22 14:50:35;;;;;;;;;7.00;5.00;;;;;;;;5012688;28;8855;-74
2024/03/22 14:53:00;;;;;;;;;4.67;4.67;;;;;;;;5012865;28;9118;-76
2024/03/22 14:55:25;;;;;;;;;4.00;4.00;;;;;;;;5012451;28;9288;-76
2024/03/22 14:57:50;;;;;;;;;6.00;6.00;;;;;;;;5012712;28;8987;-75
2024/03/22 15:00:16;;;;;;;;;7.00;6.00;;;;;;;;5012303;28;8796;-75
2024/03/22 15:02:41;;;;;;;;;5.00;5.00;;;;;;;;5012822;28;8792;-76
2024/03/22 15:05:07;;;;;;;;;4.00;4.00;;;;;;;;5012606;28;9689;-75
2024/03/22 15:07:32;;;;;;;;;4.33;4.33;;;;;;;;4993520;28;8820;-75
2024/03/22 15:09:57;;;;;;;;;7.00;5.00;;;;;;;;4993089;28;8780;-75
2024/03/22 15:12:22;;;;;;;;;8.00;5.00;;;;;;;;4993032;28;8812;-75
2024/03/22 15:14:52;;;;;;;;;5.00;5.00;;;;;;;;4992831;28;8850;-76
2024/03/22 15:17:22;;;;;;;;;6.00;5.00;;;;;;;;4992747;28;8844;-75
2024/03/22 15:19:47;;;;;;;;;7.00;5.67;;;;;;;;4992896;28;9199;-75
2024/03/22 15:22:14;;;;;;;;;5.33;4.67;;;;;;;;4992679;28;9205;-75
2024/03/22 15:24:40;;;;;;;;;5.00;5.00;;;;;;;;5012422;28;8863;-72
2024/03/22 15:27:06;;;;;;;;;4.67;4.67;;;;;;;;5012506;28;9278;-82
2024/03/22 15:29:31;;;;;;;;;5.00;5.00;;;;;;;;5011447;28;8930;-79
2024/03/22 15:31:57;;;;;;;;;5.00;5.00;;;;;;;;5011011;28;9498;-79
2024/03/22 15:34:22;;;;;;;;;5.00;4.33;;;;;;;;4993106;28;8838;-82
2024/03/22 15:36:48;;;;;;;;;4.25;4.25;;;;;;;;5012144;28;8939;-80
2024/03/22 15:39:13;;;;;;;;;5.67;5.67;;;;;;;;5011926;28;8803;-80
2024/03/22 15:41:38;;;;;;;;;6.00;5.25;;;;;;;;4994400;28;8797;-79
2024/03/22 15:44:03;;;;;;;;;5.75;4.75;;;;;;;;5011908;28;8811;-79
2024/03/22 15:46:29;;;;;;;;;4.00;4.00;;;;;;;;5011852;28;8792;-78
2024/03/22 15:48:54;;;;;;;;;12.00;12.00;;;;;;;;5011826;28;9635;-85
2024/03/22 15:51:19;;;;;;;;;7.25;7.25;;;;;;;;5012163;28;8808;-83
2024/03/22 15:53:44;;;;;;;;;4.50;4.50;;;;;;;;5011913;28;8815;-83
2024/03/22 15:56:10;;;;;;;;;4.33;4.33;;;;;;;;5011741;28;8873;-82
2024/03/22 15:58:35;;;;;;;;;5.67;5.00;;;;;;;;5011558;28;8899;-80
2024/03/22 16:01:00;;;;;;;;;6.00;6.00;;;;;;;;5011386;28;8800;-72
2024/03/22 16:03:25;;;;;;;;;6.00;4.00;;;;;;;;5011618;28;8784;-69
2024/03/22 16:05:52;;;;;;;;;5.00;5.00;;;;;;;;5011452;28;8808;-73
2024/03/22 16:08:18;;;;;;;;;5.00;5.00;;;;;;;;4993869;28;8839;-72
